createdAt,value
2023-01-22T00:04:59.580Z,98092.69
2023-01-22T00:10:04.445Z,98096.09
2023-01-22T00:15:11.122Z,98102.44
2023-01-22T00:20:15.005Z,98100.06
2023-01-22T00:25:19.597Z,98097.00
2023-01-22T00:30:22.875Z,98097.69
2023-01-22T00:35:27.742Z,98100.16
2023-01-22T00:40:32.399Z,98102.13
2023-01-22T00:45:35.553Z,98098.53
2023-01-22T00:50:39.276Z,98094.53
2023-01-22T00:55:51.832Z,98093.59
2023-01-22T01:00:56.357Z,98092.00
2023-01-22T01:06:02.488Z,98093.81
2023-01-22T01:11:09.916Z,98113.22
2023-01-22T01:16:15.792Z,98107.94
2023-01-22T01:21:19.968Z,98103.75
2023-01-22T01:26:24.826Z,98094.84
2023-01-22T01:31:28.024Z,98099.06
2023-01-22T01:36:48.390Z,98094.59
2023-01-22T01:41:53.938Z,98102.00
2023-01-22T01:47:01.408Z,98103.69
2023-01-22T01:52:09.744Z,98105.50
2023-01-22T01:57:19.431Z,98112.97
2023-01-22T02:02:23.337Z,98104.41
2023-01-22T02:07:26.354Z,98103.91
2023-01-22T02:12:31.272Z,98118.06
2023-01-22T02:17:34.455Z,98124.16
2023-01-22T02:22:39.904Z,98114.09
2023-01-22T02:27:42.964Z,98116.28
2023-01-22T02:32:46.209Z,98127.25
2023-01-22T02:37:51.486Z,98129.00
2023-01-22T02:42:54.766Z,98133.91
2023-01-22T02:47:57.913Z,98135.00
2023-01-22T02:53:02.415Z,98139.50
2023-01-22T02:58:05.625Z,98134.06
2023-01-22T03:03:15.545Z,98134.59
2023-01-22T03:08:21.521Z,98135.00
2023-01-22T03:13:42.009Z,98131.38
2023-01-22T03:19:02.740Z,98133.50
2023-01-22T03:24:07.828Z,98128.44
2023-01-22T03:29:11.097Z,98132.25
2023-01-22T03:34:14.415Z,98130.78
2023-01-22T03:39:19.319Z,98127.34
2023-01-22T03:44:22.564Z,98121.41
2023-01-22T03:49:25.867Z,98124.91
2023-01-22T03:54:31.419Z,98133.75
2023-01-22T03:59:37.171Z,98125.41
2023-01-22T04:04:40.308Z,98140.38
2023-01-22T04:09:45.697Z,98135.66
2023-01-22T04:14:49.480Z,98140.63
2023-01-22T04:19:52.594Z,98135.34
2023-01-22T04:25:16.095Z,98138.84
2023-01-22T04:30:20.803Z,98142.31
2023-01-22T04:35:29.217Z,98145.69
2023-01-22T04:40:36.018Z,98150.28
2023-01-22T04:45:39.095Z,98155.47
2023-01-22T04:50:42.397Z,98159.81
2023-01-22T04:55:49.274Z,98158.94
2023-01-22T05:00:52.714Z,98158.91
2023-01-22T05:05:56.120Z,98165.41
2023-01-22T05:11:03.013Z,98168.50
2023-01-22T05:16:13.913Z,98185.75
2023-01-22T05:21:17.084Z,98179.94
2023-01-22T05:26:22.084Z,98188.50
2023-01-22T05:31:32.111Z,98190.88
2023-01-22T05:36:37.636Z,98192.19
2023-01-22T05:41:48.899Z,98198.16
2023-01-22T05:46:52.584Z,98197.25
2023-01-22T05:52:16.264Z,98197.31
2023-01-22T05:57:22.309Z,98199.22
2023-01-22T06:02:26.183Z,98206.66
2023-01-22T06:07:31.594Z,98207.34
2023-01-22T06:12:36.769Z,98208.66
2023-01-22T06:17:40.081Z,98209.47
2023-01-22T06:22:43.293Z,98204.66
2023-01-22T06:27:48.561Z,98217.00
2023-01-22T06:32:53.714Z,98229.72
2023-01-22T06:37:57.703Z,98218.91
2023-01-22T06:43:05.246Z,98226.81
2023-01-22T06:48:08.893Z,98234.41
2023-01-22T06:53:12.168Z,98228.56
2023-01-22T06:58:16.985Z,98241.94
2023-01-22T07:03:20.422Z,98247.50
2023-01-22T07:08:23.522Z,98250.72
2023-01-22T07:13:27.980Z,98255.06
2023-01-22T07:18:31.231Z,98261.47
2023-01-22T07:23:34.593Z,98261.34
2023-01-22T07:28:41.035Z,98263.88
2023-01-22T07:33:44.548Z,98270.88
2023-01-22T07:38:47.607Z,98275.59
2023-01-22T07:43:53.317Z,98277.59
2023-01-22T07:48:56.660Z,98295.53
2023-01-22T07:54:01.928Z,98300.78
2023-01-22T07:59:06.814Z,98296.91
2023-01-22T08:04:10.115Z,98289.97
2023-01-22T08:09:13.224Z,98305.00
2023-01-22T08:14:17.671Z,98305.59
2023-01-22T08:19:20.868Z,98310.94
2023-01-22T08:24:24.517Z,98310.00
2023-01-22T08:29:29.587Z,98322.31
2023-01-22T08:34:33.523Z,98328.63
2023-01-22T08:39:37.540Z,98328.34
2023-01-22T08:44:42.870Z,98333.41
2023-01-22T08:49:45.964Z,98333.78
2023-01-22T08:54:49.081Z,98339.47
2023-01-22T09:00:01.050Z,98338.75
2023-01-22T09:05:04.671Z,98339.34
2023-01-22T09:10:12.238Z,98346.47
2023-01-22T09:15:16.789Z,98355.25
2023-01-22T09:20:20.408Z,98355.00
2023-01-22T09:25:23.753Z,98368.13
2023-01-22T09:30:30.363Z,98371.91
2023-01-22T09:35:33.649Z,98371.97
2023-01-22T09:40:44.296Z,98375.50
2023-01-22T09:45:53.559Z,98383.94
2023-01-22T09:50:56.963Z,98395.88
2023-01-22T09:56:01.022Z,98391.75
2023-01-22T10:01:07.066Z,98394.53
2023-01-22T10:06:13.981Z,98391.44
2023-01-22T10:11:17.535Z,98396.66
2023-01-22T10:16:22.226Z,98406.22
2023-01-22T10:21:27.424Z,98398.63
2023-01-22T10:26:36.818Z,98398.28
2023-01-22T10:31:48.107Z,98392.34
2023-01-22T10:36:52.962Z,98393.91
2023-01-22T10:42:03.226Z,98408.94
2023-01-22T10:47:18.469Z,98400.94
2023-01-22T10:52:24.660Z,98404.72
2023-01-22T10:57:31.565Z,98404.00
2023-01-22T11:02:37.217Z,98407.50
2023-01-22T11:07:41.028Z,98408.94
2023-01-22T11:12:47.685Z,98404.34
2023-01-22T11:17:55.509Z,98407.91
2023-01-22T11:23:13.230Z,98412.47
2023-01-22T11:28:29.504Z,98417.03
2023-01-22T11:33:56.499Z,98399.44
2023-01-22T11:39:10.697Z,98397.66
2023-01-22T11:44:46.622Z,98407.41
2023-01-22T11:50:05.424Z,98403.13
2023-01-22T11:55:42.715Z,98405.25
2023-01-22T12:00:54.603Z,98403.38
2023-01-22T12:06:12.954Z,98388.34
2023-01-22T12:11:38.393Z,98402.34
2023-01-22T12:16:50.693Z,98401.47
2023-01-22T12:22:02.724Z,98403.25
2023-01-22T12:27:12.455Z,98393.56
2023-01-22T12:32:19.247Z,98412.91
2023-01-22T12:37:29.054Z,98410.94
2023-01-22T12:42:38.418Z,98418.06
2023-01-22T12:47:51.644Z,98403.13
2023-01-22T12:53:04.347Z,98408.59
2023-01-22T12:58:22.739Z,98404.34
2023-01-22T13:03:32.131Z,98410.94
2023-01-22T13:08:45.614Z,98413.66
2023-01-22T13:13:53.997Z,98411.63
2023-01-22T13:19:00.764Z,98414.69
2023-01-22T13:24:14.518Z,98410.97
2023-01-22T13:29:21.342Z,98420.00
2023-01-22T13:34:26.050Z,98411.75
2023-01-22T13:39:32.745Z,98416.34
2023-01-22T13:44:39.209Z,98414.91
2023-01-22T13:49:44.306Z,98418.34
2023-01-22T13:54:54.560Z,98422.31
2023-01-22T13:59:59.659Z,98421.88
2023-01-22T14:05:03.879Z,98428.63
2023-01-22T14:10:16.756Z,98424.75
2023-01-22T14:15:22.522Z,98427.88
2023-01-22T14:20:25.732Z,98439.34
2023-01-22T14:25:31.780Z,98444.41
2023-01-22T14:30:35.632Z,98440.50
2023-01-22T14:35:38.825Z,98435.16
2023-01-22T14:40:43.693Z,98436.44
2023-01-22T14:45:47.935Z,98435.94
2023-01-22T14:50:52.005Z,98436.56
2023-01-22T14:55:56.669Z,98454.28
2023-01-22T15:00:59.953Z,98460.97
2023-01-22T15:06:03.329Z,98469.91
2023-01-22T15:11:08.234Z,98474.41
2023-01-22T15:16:13.033Z,98467.31
2023-01-22T15:21:16.207Z,98490.88
2023-01-22T15:26:28.798Z,98481.16
2023-01-22T15:31:32.990Z,98490.91
2023-01-22T15:36:39.512Z,98492.03
2023-01-22T15:41:44.695Z,98491.94
2023-01-22T15:46:48.448Z,98495.69
2023-01-22T15:51:51.680Z,98494.13
2023-01-22T15:56:56.613Z,98504.28
2023-01-22T16:01:59.782Z,98507.66
2023-01-22T16:07:03.157Z,98507.59
2023-01-22T16:12:09.185Z,98510.91
2023-01-22T16:17:14.683Z,98519.97
2023-01-22T16:22:17.946Z,98531.13
2023-01-22T16:27:22.663Z,98519.00
2023-01-22T16:32:25.951Z,98517.53
2023-01-22T16:37:29.108Z,98513.44
2023-01-22T16:42:34.240Z,98517.25
2023-01-22T16:47:37.385Z,98524.41
2023-01-22T16:52:42.380Z,98529.34
2023-01-22T16:57:46.884Z,98538.81
2023-01-22T17:02:50.070Z,98536.97
2023-01-22T17:07:53.374Z,98539.84
2023-01-22T17:12:58.364Z,98549.44
2023-01-22T17:18:01.574Z,98562.34
2023-01-22T17:23:04.616Z,98557.31
2023-01-22T17:28:09.311Z,98568.53
2023-01-22T17:38:19.268Z,98564.84
2023-01-22T17:43:24.842Z,98571.00
2023-01-22T17:48:28.037Z,98580.34
2023-01-22T17:53:31.256Z,98587.84
2023-01-22T17:58:35.805Z,98597.69
2023-01-22T18:03:39.273Z,98606.25
2023-01-22T18:08:42.846Z,98610.06
2023-01-22T18:13:47.872Z,98611.88
2023-01-22T18:18:52.664Z,98614.41
2023-01-22T18:23:56.120Z,98616.06
2023-01-22T18:29:00.991Z,98628.16
2023-01-22T18:34:06.147Z,98627.09
2023-01-22T18:39:12.088Z,98632.47
2023-01-22T18:44:19.543Z,98629.88
2023-01-22T18:49:23.348Z,98636.03
2023-01-22T18:54:26.396Z,98638.75
2023-01-22T18:59:31.026Z,98646.44
2023-01-22T19:04:34.193Z,98656.50
2023-01-22T19:09:37.388Z,98658.66
2023-01-22T19:14:42.023Z,98659.25
2023-01-22T19:19:45.214Z,98654.13
2023-01-22T19:24:49.087Z,98659.56
2023-01-22T19:29:55.143Z,98656.81
2023-01-22T19:34:58.945Z,98650.59
2023-01-22T19:40:02.260Z,98648.94
2023-01-22T19:45:08.858Z,98661.97
2023-01-22T19:50:12.737Z,98653.25
2023-01-22T19:55:15.791Z,98661.13
2023-01-22T20:00:21.270Z,98660.94
2023-01-22T20:05:24.393Z,98669.75
2023-01-22T20:10:27.836Z,98667.91
2023-01-22T20:15:32.845Z,98681.53
2023-01-22T20:20:36.634Z,98688.97
2023-01-22T20:25:39.825Z,98686.06
2023-01-22T20:30:45.056Z,98690.13
2023-01-22T20:35:48.123Z,98689.25
2023-01-22T20:40:51.236Z,98696.34
2023-01-22T20:46:03.902Z,98701.38
2023-01-22T20:51:15.283Z,98708.50
2023-01-22T20:56:22.601Z,98699.78
2023-01-22T21:01:28.468Z,98709.19
2023-01-22T21:06:35.432Z,98711.03
2023-01-22T21:11:40.348Z,98717.91
2023-01-22T21:16:45.742Z,98716.81
2023-01-22T21:21:49.020Z,98717.66
2023-01-22T21:26:52.260Z,98718.69
2023-01-22T21:31:56.965Z,98712.81
2023-01-22T21:37:00.387Z,98723.72
2023-01-22T21:42:21.047Z,98711.47
2023-01-22T21:47:25.673Z,98714.22
2023-01-22T21:52:29.057Z,98719.25
2023-01-22T21:57:32.595Z,98733.75
2023-01-22T22:02:36.991Z,98734.25
2023-01-22T22:07:40.183Z,98739.69
2023-01-22T22:12:44.062Z,98731.66
2023-01-22T22:17:48.977Z,98741.34
2023-01-22T22:22:51.999Z,98756.91
2023-01-22T22:27:57.020Z,98748.75
2023-01-22T22:33:01.531Z,98748.69
2023-01-22T22:38:04.681Z,98757.69
2023-01-22T22:43:07.801Z,98758.16
2023-01-22T22:48:12.264Z,98765.53
2023-01-22T22:53:15.417Z,98763.94
2023-01-22T22:58:18.679Z,98771.63
2023-01-22T23:03:23.360Z,98768.13
2023-01-22T23:08:26.504Z,98772.88
2023-01-22T23:13:31.847Z,98774.63
2023-01-22T23:18:37.051Z,98779.88
2023-01-22T23:23:41.316Z,98778.72
2023-01-22T23:28:45.125Z,98786.00
2023-01-22T23:33:51.440Z,98785.09
2023-01-22T23:38:55.189Z,98792.59
2023-01-22T23:43:58.281Z,98787.53
2023-01-22T23:49:04.105Z,98776.97
2023-01-22T23:54:08.766Z,98772.00
2023-01-22T23:59:12.261Z,98776.03
